createdAt,value
2017-11-08T00:02:19.482Z,18.63
2017-11-08T00:04:46.082Z,19.60
2017-11-08T00:07:12.667Z,18.77
2017-11-08T00:09:39.251Z,18.57
2017-11-08T00:12:05.850Z,19.10
2017-11-08T00:14:32.442Z,17.80
2017-11-08T00:16:59.038Z,18.70
2017-11-08T00:19:25.629Z,18.80
2017-11-08T00:21:52.233Z,18.80
2017-11-08T00:24:26.327Z,17.97
2017-11-08T00:26:52.921Z,18.30
2017-11-08T00:29:19.510Z,18.50
2017-11-08T00:31:46.093Z,19.40
2017-11-08T00:34:12.681Z,18.27
2017-11-08T00:36:39.277Z,19.23
2017-11-08T00:39:05.882Z,18.67
2017-11-08T00:41:32.490Z,19.00
2017-11-08T00:43:59.071Z,18.83
2017-11-08T00:46:25.676Z,18.47
2017-11-08T00:48:52.273Z,19.03
2017-11-08T00:51:18.866Z,17.90
2017-11-08T00:53:45.454Z,17.60
2017-11-08T00:56:12.038Z,19.93
2017-11-08T00:58:38.622Z,19.07
2017-11-08T01:01:05.233Z,18.13
2017-11-08T01:03:31.839Z,18.67
2017-11-08T01:05:58.410Z,18.40
2017-11-08T01:08:24.998Z,18.50
2017-11-08T01:10:51.589Z,18.03
2017-11-08T01:13:18.181Z,17.70
2017-11-08T01:15:44.766Z,19.10
2017-11-08T01:18:11.357Z,18.20
2017-11-08T01:20:37.950Z,18.00
2017-11-08T01:23:04.537Z,19.80
2017-11-08T01:25:31.153Z,18.13
2017-11-08T01:27:57.743Z,20.03
2017-11-08T01:30:24.338Z,19.73
2017-11-08T01:32:50.927Z,19.63
2017-11-08T01:35:17.516Z,18.60
2017-11-08T01:37:47.013Z,18.40
2017-11-08T01:40:14.509Z,19.40
2017-11-08T01:42:41.106Z,18.70
2017-11-08T01:45:07.689Z,19.27
2017-11-08T01:47:34.291Z,19.13
2017-11-08T01:50:02.690Z,18.90
2017-11-08T01:52:29.278Z,18.77
2017-11-08T01:54:55.878Z,18.50
2017-11-08T01:57:22.462Z,18.73
2017-11-08T01:59:49.065Z,18.90
2017-11-08T02:02:15.638Z,18.40
2017-11-08T02:04:42.229Z,18.20
2017-11-08T02:07:08.822Z,18.60
2017-11-08T02:09:35.428Z,18.90
2017-11-08T02:12:02.018Z,18.10
2017-11-08T02:14:28.605Z,18.80
2017-11-08T02:16:55.198Z,18.50
2017-11-08T02:19:21.797Z,18.07
2017-11-08T02:21:48.401Z,19.20
2017-11-08T02:24:14.982Z,17.83
2017-11-08T02:26:41.598Z,18.33
2017-11-08T02:29:08.183Z,18.60
2017-11-08T02:31:34.761Z,19.60
2017-11-08T02:34:01.361Z,18.27
2017-11-08T02:36:27.954Z,18.47
2017-11-08T02:38:54.553Z,17.87
2017-11-08T02:41:21.141Z,18.40
2017-11-08T02:43:47.742Z,17.77
2017-11-08T02:46:19.958Z,17.37
2017-11-08T02:48:46.560Z,18.60
2017-11-08T02:51:13.138Z,17.20
2017-11-08T02:53:39.726Z,18.50
2017-11-08T02:56:06.318Z,18.10
2017-11-08T02:58:32.898Z,17.50
2017-11-08T03:00:59.544Z,19.10
2017-11-08T03:03:26.131Z,19.10
2017-11-08T03:05:52.713Z,18.13
2017-11-08T03:08:19.302Z,18.93
2017-11-08T03:10:45.890Z,20.07
2017-11-08T03:13:12.486Z,20.20
2017-11-08T03:15:39.070Z,20.20
2017-11-08T03:18:05.682Z,18.90
2017-11-08T03:20:32.281Z,18.67
2017-11-08T03:22:58.863Z,18.70
2017-11-08T03:25:25.451Z,18.17
2017-11-08T03:27:52.043Z,19.43
2017-11-08T03:30:18.654Z,19.87
2017-11-08T03:32:45.242Z,18.50
2017-11-08T03:35:11.854Z,19.17
2017-11-08T03:37:38.445Z,19.40
2017-11-08T03:40:05.034Z,19.53
2017-11-08T03:42:31.627Z,18.37
2017-11-08T03:44:58.218Z,17.70
2017-11-08T03:47:24.814Z,19.40
2017-11-08T03:49:51.400Z,18.90
2017-11-08T03:52:18.009Z,18.53
2017-11-08T03:54:44.597Z,18.70
2017-11-08T03:57:11.182Z,18.90
2017-11-08T03:59:37.778Z,18.60
2017-11-08T04:02:04.362Z,19.10
2017-11-08T04:04:30.949Z,17.00
2017-11-08T04:06:57.546Z,18.30
2017-11-08T04:09:24.146Z,18.20
2017-11-08T04:11:50.730Z,16.93
2017-11-08T04:14:17.319Z,19.47
2017-11-08T04:16:43.910Z,18.23
2017-11-08T04:19:10.494Z,16.90
2017-11-08T04:21:37.081Z,19.30
2017-11-08T04:24:03.677Z,19.07
2017-11-08T04:26:30.262Z,18.13
2017-11-08T04:28:56.857Z,18.97
2017-11-08T04:31:23.445Z,18.17
2017-11-08T04:33:50.045Z,18.50
2017-11-08T04:36:16.637Z,17.70
2017-11-08T04:38:43.221Z,18.60
2017-11-08T04:41:09.854Z,18.90
2017-11-08T04:43:36.437Z,18.50
2017-11-08T04:46:03.041Z,17.60
2017-11-08T04:48:29.622Z,18.37
2017-11-08T04:50:56.212Z,17.67
2017-11-08T04:53:22.805Z,19.07
2017-11-08T04:55:49.378Z,17.70
2017-11-08T04:58:15.978Z,18.33
2017-11-08T05:00:42.565Z,18.40
2017-11-08T05:03:09.164Z,17.47
2017-11-08T05:05:35.741Z,19.83
2017-11-08T05:08:02.335Z,18.17
2017-11-08T05:10:28.933Z,18.40
2017-11-08T05:12:55.517Z,18.13
2017-11-08T05:15:22.106Z,18.50
2017-11-08T05:17:48.701Z,18.50
2017-11-08T05:20:15.286Z,18.90
2017-11-08T05:22:42.009Z,18.93
2017-11-08T05:25:08.593Z,19.13
2017-11-08T05:27:35.170Z,18.57
2017-11-08T05:30:01.763Z,18.57
2017-11-08T05:32:28.342Z,19.90
2017-11-08T05:34:54.930Z,18.97
2017-11-08T05:37:21.518Z,18.70
2017-11-08T05:39:48.117Z,19.57
2017-11-08T05:42:14.719Z,18.53
2017-11-08T05:44:41.292Z,19.00
2017-11-08T05:47:07.901Z,18.83
2017-11-08T05:49:34.493Z,18.10
2017-11-08T05:52:01.086Z,19.80
2017-11-08T05:54:27.677Z,18.80
2017-11-08T05:56:54.261Z,19.10
2017-11-08T05:59:20.862Z,19.10
2017-11-08T06:01:47.445Z,19.03
2017-11-08T06:04:14.038Z,19.70
2017-11-08T06:06:40.635Z,18.70
2017-11-08T06:09:07.223Z,19.00
2017-11-08T06:11:33.826Z,19.93
2017-11-08T06:14:00.419Z,18.97
2017-11-08T06:16:27.017Z,18.93
2017-11-08T06:18:53.608Z,18.50
2017-11-08T06:21:20.190Z,19.27
2017-11-08T06:23:46.791Z,18.80
2017-11-08T06:26:14.754Z,19.30
2017-11-08T06:28:41.357Z,17.80
2017-11-08T06:31:07.945Z,19.10
2017-11-08T06:33:34.537Z,20.33
2017-11-08T06:36:01.129Z,18.20
2017-11-08T06:38:27.715Z,19.07
2017-11-08T06:40:54.317Z,18.87
2017-11-08T06:43:20.908Z,19.30
2017-11-08T06:45:47.491Z,18.87
2017-11-08T06:48:14.088Z,18.83
2017-11-08T06:50:40.670Z,18.93
2017-11-08T06:53:07.324Z,20.00
2017-11-08T06:55:35.872Z,18.27
2017-11-08T06:58:02.470Z,18.67
2017-11-08T07:00:29.074Z,19.70
2017-11-08T07:02:55.660Z,18.23
2017-11-08T07:05:22.262Z,19.10
2017-11-08T07:07:48.861Z,19.60
2017-11-08T07:10:15.479Z,19.63
2017-11-08T07:12:42.074Z,20.00
2017-11-08T07:15:08.670Z,20.50
2017-11-08T07:17:35.258Z,20.33
2017-11-08T07:20:01.850Z,20.53
2017-11-08T07:22:28.434Z,20.20
2017-11-08T07:24:55.030Z,20.13
2017-11-08T07:27:21.617Z,19.70
2017-11-08T07:29:48.243Z,19.40
2017-11-08T07:32:14.817Z,18.70
2017-11-08T07:34:41.397Z,18.73
2017-11-08T07:37:07.994Z,18.10
2017-11-08T07:39:34.579Z,19.53
2017-11-08T07:42:01.295Z,19.10
2017-11-08T07:44:27.886Z,18.93
2017-11-08T07:46:54.462Z,18.87
2017-11-08T07:49:21.053Z,18.77
2017-11-08T07:51:47.636Z,17.53
2017-11-08T07:54:20.050Z,18.17
2017-11-08T07:56:46.638Z,18.90
2017-11-08T07:59:13.221Z,17.90
2017-11-08T08:01:39.815Z,18.90
2017-11-08T08:04:06.402Z,19.60
2017-11-08T08:06:33.054Z,19.93
2017-11-08T08:08:59.683Z,19.87
2017-11-08T08:11:26.511Z,19.93
2017-11-08T08:13:59.058Z,19.63
2017-11-08T08:16:25.638Z,20.40
2017-11-08T08:18:52.230Z,20.40
2017-11-08T08:21:23.652Z,21.77
2017-11-08T08:23:50.234Z,20.23
2017-11-08T08:26:16.831Z,20.60
2017-11-08T08:28:43.422Z,20.10
2017-11-08T08:31:10.018Z,19.80
2017-11-08T08:33:36.602Z,20.17
2017-11-08T08:36:03.206Z,20.20
2017-11-08T08:38:29.813Z,18.50
2017-11-08T08:40:56.400Z,19.50
2017-11-08T08:43:22.996Z,19.37
2017-11-08T08:45:49.578Z,19.40
2017-11-08T08:48:16.179Z,18.73
2017-11-08T08:50:42.765Z,20.00
2017-11-08T08:53:09.358Z,19.30
2017-11-08T08:55:35.950Z,18.90
2017-11-08T08:58:02.547Z,19.60
2017-11-08T09:00:29.153Z,19.30
2017-11-08T09:02:55.737Z,20.33
2017-11-08T09:05:22.322Z,19.27
2017-11-08T09:07:49.756Z,18.03
2017-11-08T09:10:16.335Z,18.53
2017-11-08T09:12:42.927Z,19.17
2017-11-08T09:15:09.522Z,17.80
2017-11-08T09:17:36.121Z,18.80
2017-11-08T09:20:02.710Z,17.60
2017-11-08T09:22:29.294Z,19.97
2017-11-08T09:24:56.083Z,18.73
2017-11-08T09:27:22.670Z,19.33
2017-11-08T09:29:50.144Z,19.10
2017-11-08T09:32:16.717Z,17.80
2017-11-08T09:34:46.234Z,19.60
2017-11-08T09:37:12.818Z,19.70
2017-11-08T09:39:39.406Z,20.13
2017-11-08T09:42:20.715Z,20.20
2017-11-08T09:44:47.296Z,19.40
2017-11-08T09:47:13.889Z,20.97
2017-11-08T09:49:40.482Z,20.17
2017-11-08T09:52:07.082Z,21.23
2017-11-08T09:54:33.666Z,21.20
2017-11-08T09:57:06.115Z,21.77
2017-11-08T09:59:37.573Z,22.03
2017-11-08T10:02:05.961Z,21.43
2017-11-08T10:04:32.550Z,21.93
2017-11-08T10:06:59.134Z,23.07
2017-11-08T10:09:29.746Z,21.80
2017-11-08T10:11:56.283Z,23.00
2017-11-08T10:14:22.893Z,22.37
2017-11-08T10:16:49.473Z,22.80
2017-11-08T10:19:16.065Z,22.57
2017-11-08T10:21:44.466Z,22.23
2017-11-08T10:24:11.169Z,22.93
2017-11-08T10:26:37.741Z,22.27
2017-11-08T10:29:04.334Z,22.60
2017-11-08T10:31:30.966Z,24.27
2017-11-08T10:33:57.567Z,24.90
2017-11-08T10:36:24.152Z,22.97
2017-11-08T10:38:50.758Z,24.10
2017-11-08T10:41:17.358Z,24.50
2017-11-08T10:43:43.907Z,24.33
2017-11-08T10:46:10.502Z,26.03
2017-11-08T10:48:37.871Z,26.00
2017-11-08T10:51:04.467Z,25.57
2017-11-08T10:53:31.050Z,27.03
2017-11-08T10:55:57.638Z,27.07
2017-11-08T10:58:24.226Z,27.17
2017-11-08T11:00:50.823Z,27.60
2017-11-08T11:03:17.403Z,28.57
2017-11-08T11:05:44.002Z,28.87
2017-11-08T11:08:10.607Z,28.20
2017-11-08T11:10:37.202Z,29.83
2017-11-08T11:13:03.791Z,29.67
2017-11-08T11:15:30.407Z,29.13
2017-11-08T11:17:56.984Z,29.57
2017-11-08T11:20:23.572Z,32.80
2017-11-08T11:22:50.171Z,31.70
2017-11-08T11:25:16.787Z,31.30
2017-11-08T11:27:43.370Z,32.50
2017-11-08T11:30:09.979Z,31.27
2017-11-08T11:32:42.143Z,32.30
2017-11-08T11:35:08.728Z,32.27
2017-11-08T11:37:40.825Z,32.97
2017-11-08T11:40:07.422Z,32.10
2017-11-08T11:42:34.006Z,32.50
2017-11-08T11:45:00.606Z,32.73
2017-11-08T11:47:27.197Z,33.30
2017-11-08T11:49:53.780Z,32.93
2017-11-08T11:52:20.371Z,31.93
2017-11-08T11:54:46.958Z,33.23
2017-11-08T11:57:13.552Z,32.27
2017-11-08T11:59:40.159Z,32.63
2017-11-08T12:02:06.764Z,32.20
2017-11-08T12:04:33.359Z,33.40
2017-11-08T12:06:59.946Z,33.23
2017-11-08T12:09:26.543Z,32.70
2017-11-08T12:11:53.140Z,35.27
2017-11-08T12:14:19.730Z,32.97
2017-11-08T12:16:46.323Z,34.00
2017-11-08T12:19:12.918Z,34.73
2017-11-08T12:21:39.506Z,34.17
2017-11-08T12:24:06.087Z,33.80
2017-11-08T12:26:32.682Z,35.70
2017-11-08T12:28:59.276Z,35.10
2017-11-08T12:31:25.866Z,32.47
2017-11-08T12:33:52.447Z,35.67
2017-11-08T12:36:19.042Z,33.80
2017-11-08T12:38:45.624Z,34.17
2017-11-08T12:41:12.219Z,34.00
2017-11-08T12:43:40.507Z,36.30
2017-11-08T12:46:07.106Z,36.53
2017-11-08T12:48:33.732Z,38.20
2017-11-08T12:51:00.329Z,39.30
2017-11-08T12:53:26.913Z,38.97
2017-11-08T12:55:53.495Z,40.40
2017-11-08T12:58:20.087Z,40.40
2017-11-08T13:00:46.666Z,42.17
2017-11-08T13:03:13.263Z,40.80
2017-11-08T13:05:41.736Z,40.67
2017-11-08T13:08:08.368Z,43.63
2017-11-08T13:10:40.779Z,44.20
2017-11-08T13:13:07.375Z,45.10
2017-11-08T13:15:33.975Z,43.87
2017-11-08T13:18:00.558Z,41.37
2017-11-08T13:20:27.170Z,43.40
2017-11-08T13:22:53.762Z,44.20
2017-11-08T13:25:20.351Z,42.00
2017-11-08T13:27:46.954Z,44.40
2017-11-08T13:30:13.566Z,44.60
2017-11-08T13:32:40.158Z,42.07
2017-11-08T13:35:06.746Z,43.80
2017-11-08T13:37:33.335Z,42.37
2017-11-08T13:40:14.683Z,41.37
2017-11-08T13:42:41.286Z,46.03
2017-11-08T13:45:09.638Z,43.27
2017-11-08T13:47:36.250Z,43.40
2017-11-08T13:50:02.840Z,41.80
2017-11-08T13:52:29.440Z,45.27
2017-11-08T13:54:56.047Z,44.67
2017-11-08T13:57:22.642Z,42.13
2017-11-08T13:59:49.247Z,42.83
2017-11-08T14:02:15.831Z,43.27
2017-11-08T14:04:42.441Z,43.60
2017-11-08T14:07:09.026Z,44.67
2017-11-08T14:09:35.622Z,41.53
2017-11-08T14:12:02.224Z,42.70
2017-11-08T14:14:28.809Z,41.40
2017-11-08T14:16:55.403Z,42.07
2017-11-08T14:19:21.995Z,43.10
2017-11-08T14:21:48.606Z,42.63
2017-11-08T14:24:15.197Z,42.90
2017-11-08T14:26:41.787Z,43.70
2017-11-08T14:29:08.383Z,43.30
2017-11-08T14:31:34.983Z,44.37
2017-11-08T14:34:01.573Z,40.80
2017-11-08T14:36:28.158Z,42.07
2017-11-08T14:38:54.771Z,42.03
2017-11-08T14:41:21.360Z,43.60
2017-11-08T14:43:47.978Z,42.93
2017-11-08T14:46:14.587Z,43.30
2017-11-08T14:48:41.187Z,42.90
2017-11-08T14:51:07.875Z,41.17
2017-11-08T14:53:40.214Z,42.73
2017-11-08T14:56:06.815Z,43.27
2017-11-08T14:58:33.402Z,41.30
2017-11-08T15:01:00.302Z,40.20
2017-11-08T15:03:26.877Z,39.83
2017-11-08T15:05:53.471Z,40.40
2017-11-08T15:08:20.067Z,39.63
2017-11-08T15:10:46.653Z,40.33
2017-11-08T15:13:13.246Z,38.60
2017-11-08T15:15:39.823Z,39.60
2017-11-08T15:18:06.425Z,39.47
2017-11-08T15:20:33.006Z,40.40
2017-11-08T15:22:59.590Z,38.07
2017-11-08T15:25:26.184Z,40.77
2017-11-08T15:27:52.782Z,40.90
2017-11-08T15:30:25.140Z,42.00
2017-11-08T15:32:51.718Z,39.97
2017-11-08T15:35:18.310Z,39.13
2017-11-08T15:37:44.907Z,37.87
2017-11-08T15:40:16.478Z,37.70
2017-11-08T15:42:43.070Z,38.43
2017-11-08T15:45:09.650Z,38.63
2017-11-08T15:47:37.202Z,37.67
2017-11-08T15:50:03.786Z,39.40
2017-11-08T15:52:30.376Z,41.10
2017-11-08T15:54:56.964Z,41.33
2017-11-08T15:57:23.542Z,39.47
2017-11-08T15:59:50.135Z,39.20
2017-11-08T16:02:18.459Z,48.27
2017-11-08T16:04:45.094Z,52.27
2017-11-08T16:07:11.689Z,57.63
2017-11-08T16:09:38.285Z,49.63
2017-11-08T16:12:10.768Z,48.10
2017-11-08T16:14:37.360Z,42.70
2017-11-08T16:17:03.956Z,39.97
2017-11-08T16:19:30.585Z,37.73
2017-11-08T16:21:57.216Z,36.83
2017-11-08T16:24:23.799Z,37.60
2017-11-08T16:26:50.393Z,37.43
2017-11-08T16:29:16.991Z,37.20
2017-11-08T16:31:46.507Z,36.90
2017-11-08T16:34:13.099Z,36.80
2017-11-08T16:36:39.678Z,35.90
2017-11-08T16:39:06.336Z,34.40
2017-11-08T16:41:32.918Z,34.73
2017-11-08T16:43:59.505Z,35.87
2017-11-08T16:46:26.100Z,36.47
2017-11-08T16:48:52.684Z,35.37
2017-11-08T16:51:19.275Z,35.63
2017-11-08T16:53:45.891Z,36.57
2017-11-08T16:56:12.507Z,35.73
2017-11-08T16:58:39.100Z,35.40
2017-11-08T17:01:05.678Z,35.63
2017-11-08T17:03:32.276Z,35.40
2017-11-08T17:05:58.867Z,34.50
2017-11-08T17:08:25.459Z,33.43
2017-11-08T17:10:52.062Z,33.17
2017-11-08T17:13:18.740Z,34.17
2017-11-08T17:15:45.367Z,33.90
2017-11-08T17:18:11.946Z,33.67
2017-11-08T17:20:38.542Z,33.43
2017-11-08T17:23:05.127Z,34.63
2017-11-08T17:25:31.714Z,33.07
2017-11-08T17:27:58.302Z,33.10
2017-11-08T17:30:24.930Z,33.87
2017-11-08T17:32:51.511Z,33.50
2017-11-08T17:35:18.099Z,36.17
2017-11-08T17:37:44.687Z,35.00
2017-11-08T17:40:11.271Z,34.93
2017-11-08T17:42:37.989Z,32.30
2017-11-08T17:45:04.570Z,35.23
2017-11-08T17:47:31.186Z,33.10
2017-11-08T17:49:57.783Z,33.40
2017-11-08T17:52:24.378Z,33.27
2017-11-08T17:54:50.981Z,34.10
2017-11-08T17:57:17.570Z,34.67
2017-11-08T17:59:44.167Z,32.57
2017-11-08T18:02:10.764Z,34.23
2017-11-08T18:04:37.410Z,34.60
2017-11-08T18:07:03.990Z,34.60
2017-11-08T18:09:30.583Z,35.90
2017-11-08T18:11:57.182Z,37.00
2017-11-08T18:14:23.799Z,35.23
2017-11-08T18:16:50.386Z,34.50
2017-11-08T18:19:16.997Z,33.57
2017-11-08T18:21:43.568Z,33.77
2017-11-08T18:24:10.159Z,33.30
2017-11-08T18:26:36.748Z,34.83
2017-11-08T18:29:03.350Z,37.43
2017-11-08T18:31:29.940Z,33.20
2017-11-08T18:33:56.530Z,35.53
2017-11-08T18:36:23.126Z,36.20
2017-11-08T18:38:49.743Z,35.07
2017-11-08T18:41:16.323Z,36.57
2017-11-08T18:43:42.913Z,36.37
2017-11-08T18:46:09.516Z,36.33
2017-11-08T18:48:36.095Z,35.87
2017-11-08T18:51:02.695Z,37.10
2017-11-08T18:53:29.393Z,38.47
2017-11-08T18:55:55.966Z,38.00
2017-11-08T18:58:22.566Z,38.00
2017-11-08T19:00:49.166Z,37.60
2017-11-08T19:03:15.769Z,38.97
2017-11-08T19:05:42.358Z,39.27
2017-11-08T19:08:08.960Z,37.67
2017-11-08T19:10:35.556Z,37.70
2017-11-08T19:13:02.143Z,38.17
2017-11-08T19:15:28.746Z,36.67
2017-11-08T19:17:55.356Z,38.43
2017-11-08T19:20:21.938Z,38.53
2017-11-08T19:22:48.527Z,39.20
2017-11-08T19:25:15.131Z,38.03
2017-11-08T19:27:41.751Z,40.73
2017-11-08T19:30:08.327Z,39.90
2017-11-08T19:32:34.928Z,40.23
2017-11-08T19:35:01.512Z,41.47
2017-11-08T19:37:28.111Z,38.47
2017-11-08T19:39:54.694Z,40.53
2017-11-08T19:42:21.288Z,40.70
2017-11-08T19:44:47.887Z,40.93
2017-11-08T19:47:14.470Z,41.20
2017-11-08T19:49:41.097Z,42.40
2017-11-08T19:52:07.687Z,40.77
2017-11-08T19:54:34.279Z,39.50
2017-11-08T19:57:00.884Z,39.97
2017-11-08T19:59:27.511Z,40.63
2017-11-08T20:01:54.222Z,41.73
2017-11-08T20:04:20.812Z,39.40
2017-11-08T20:06:47.398Z,38.30
2017-11-08T20:09:14.006Z,39.00
2017-11-08T20:11:40.631Z,40.73
2017-11-08T20:14:07.211Z,41.93
2017-11-08T20:16:33.832Z,39.83
2017-11-08T20:19:00.427Z,43.20
2017-11-08T20:21:27.015Z,43.27
2017-11-08T20:23:53.651Z,42.90
2017-11-08T20:26:20.242Z,42.43
2017-11-08T20:28:46.840Z,43.10
2017-11-08T21:14:52.978Z,43.07
2017-11-08T21:17:19.575Z,41.40
2017-11-08T21:19:46.190Z,43.47
2017-11-08T21:22:12.784Z,43.17
2017-11-08T21:24:39.376Z,44.10
2017-11-08T21:27:05.983Z,45.27
2017-11-08T21:29:32.559Z,44.37
2017-11-08T21:31:59.162Z,44.07
2017-11-08T21:34:25.751Z,47.10
2017-11-08T21:36:52.380Z,44.00
2017-11-08T21:39:18.967Z,42.67
2017-11-08T21:41:45.563Z,42.77
2017-11-08T21:44:12.158Z,46.47
2017-11-08T21:46:38.751Z,47.17
2017-11-08T21:49:05.355Z,43.10
2017-11-08T21:51:31.936Z,41.70
2017-11-08T21:53:58.546Z,44.10
2017-11-08T21:56:25.147Z,42.00
2017-11-08T21:58:51.753Z,41.93
2017-11-08T22:01:18.346Z,44.37
2017-11-08T22:03:44.934Z,43.80
2017-11-08T22:06:11.531Z,44.57
2017-11-08T22:08:38.132Z,44.30
2017-11-08T22:11:04.730Z,43.30
2017-11-08T22:13:31.323Z,43.87
2017-11-08T22:15:57.915Z,42.77
2017-11-08T22:18:24.506Z,43.97
2017-11-08T22:20:51.123Z,43.80
2017-11-08T22:23:17.733Z,42.80
2017-11-08T22:25:44.315Z,43.27
2017-11-08T22:28:10.928Z,42.20
2017-11-08T22:30:37.514Z,42.70
2017-11-08T22:33:04.110Z,40.77
2017-11-08T22:35:30.707Z,43.10
2017-11-08T22:37:57.299Z,43.70
2017-11-08T22:40:23.929Z,41.83
2017-11-08T22:42:50.526Z,42.60
2017-11-08T22:45:17.139Z,43.53
2017-11-08T22:47:43.736Z,41.30
2017-11-08T22:50:10.319Z,42.10
2017-11-08T22:52:36.914Z,43.40
2017-11-08T22:55:03.498Z,43.53
2017-11-08T22:57:30.147Z,39.93
2017-11-08T22:59:56.730Z,41.77
2017-11-08T23:02:23.335Z,40.20
2017-11-08T23:04:49.923Z,41.43
2017-11-08T23:07:16.515Z,41.70
2017-11-08T23:09:43.115Z,42.13
2017-11-08T23:12:10.440Z,42.87
2017-11-08T23:14:37.035Z,41.87
2017-11-08T23:17:03.625Z,41.53
2017-11-08T23:19:30.231Z,41.20
2017-11-08T23:21:56.823Z,41.27
2017-11-08T23:24:23.412Z,39.93
2017-11-08T23:26:50.011Z,41.70
2017-11-08T23:29:16.606Z,40.30
2017-11-08T23:31:43.210Z,41.80
2017-11-08T23:34:09.802Z,39.60
2017-11-08T23:36:36.410Z,40.40
2017-11-08T23:39:03.015Z,41.23
2017-11-08T23:41:29.595Z,42.07
2017-11-08T23:43:56.199Z,39.83
2017-11-08T23:46:22.788Z,42.57
2017-11-08T23:48:49.385Z,38.80
2017-11-08T23:51:15.980Z,40.70
2017-11-08T23:53:44.436Z,41.97
2017-11-08T23:56:11.025Z,41.23
2017-11-08T23:58:37.631Z,40.30
